createdAt,value
2018-12-21T00:00:41.628Z,22.17
2018-12-21T00:03:10.079Z,17.03
2018-12-21T00:05:38.568Z,23.57
2018-12-21T00:08:07.043Z,19.47
2018-12-21T00:10:35.611Z,27.10
2018-12-21T00:13:04.079Z,24.53
2018-12-21T00:15:32.591Z,25.57
2018-12-21T00:18:01.199Z,23.87
2018-12-21T00:20:29.673Z,24.77
2018-12-21T00:22:58.185Z,25.33
2018-12-21T00:25:26.668Z,28.50
2018-12-21T00:27:55.204Z,29.67
2018-12-21T00:30:22.949Z,25.67
2018-12-21T00:32:57.187Z,31.57
2018-12-21T00:35:30.837Z,45.90
2018-12-21T00:38:05.670Z,28.10
2018-12-21T00:40:39.668Z,33.90
2018-12-21T00:43:18.229Z,41.13
2018-12-21T00:45:50.076Z,37.53
2018-12-21T00:48:18.568Z,31.83
2018-12-21T00:50:47.068Z,35.70
2018-12-21T00:53:15.572Z,41.60
2018-12-21T00:55:44.139Z,36.90
2018-12-21T00:58:12.592Z,33.13
2018-12-21T01:00:41.176Z,38.10
2018-12-21T01:03:09.684Z,38.80
2018-12-21T01:05:38.140Z,41.30
2018-12-21T01:08:06.628Z,37.77
2018-12-21T01:10:35.113Z,41.48
2018-12-21T01:13:03.801Z,39.47
2018-12-21T01:15:32.321Z,37.63
2018-12-21T01:18:01.489Z,35.30
2018-12-21T01:20:30.111Z,41.53
2018-12-21T01:22:58.603Z,30.30
2018-12-21T01:25:27.120Z,34.63
2018-12-21T01:27:55.593Z,44.50
2018-12-21T01:30:24.246Z,33.03
2018-12-21T01:32:52.736Z,33.83
2018-12-21T01:35:21.214Z,33.00
2018-12-21T01:37:49.809Z,29.80
2018-12-21T01:40:18.284Z,29.20
2018-12-21T01:42:46.792Z,29.17
2018-12-21T01:45:15.262Z,22.37
2018-12-21T01:47:43.725Z,29.87
2018-12-21T01:50:12.211Z,25.87
2018-12-21T01:52:40.738Z,23.83
2018-12-21T01:55:09.423Z,22.73
2018-12-21T01:57:37.887Z,27.53
2018-12-21T02:00:06.961Z,24.60
2018-12-21T02:02:35.425Z,32.20
2018-12-21T02:05:03.959Z,28.07
2018-12-21T02:07:32.407Z,29.50
2018-12-21T02:10:00.863Z,21.70
2018-12-21T02:12:29.360Z,19.12
2018-12-21T02:14:57.788Z,37.00
2018-12-21T02:17:26.305Z,23.67
2018-12-21T02:19:54.772Z,36.70
2018-12-21T02:22:23.259Z,28.63
2018-12-21T02:24:51.716Z,28.67
2018-12-21T02:27:20.155Z,24.13
2018-12-21T02:29:48.744Z,23.27
2018-12-21T02:32:17.235Z,29.87
2018-12-21T02:34:45.698Z,27.67
2018-12-21T02:37:14.180Z,26.47
2018-12-21T02:39:42.660Z,23.97
2018-12-21T02:42:11.184Z,31.90
2018-12-21T02:44:39.666Z,23.53
2018-12-21T02:47:08.125Z,24.23
2018-12-21T02:49:36.652Z,26.57
2018-12-21T02:52:05.678Z,20.73
2018-12-21T02:54:34.505Z,48.00
2018-12-21T02:57:02.969Z,28.03
2018-12-21T02:59:31.432Z,16.63
2018-12-21T03:01:59.933Z,21.07
2018-12-21T03:04:28.391Z,16.37
2018-12-21T03:06:56.951Z,20.23
2018-12-21T03:09:25.424Z,16.50
2018-12-21T03:11:53.923Z,20.20
2018-12-21T03:14:22.528Z,34.83
2018-12-21T03:16:51.068Z,17.20
2018-12-21T03:19:19.511Z,25.10
2018-12-21T03:21:48.029Z,19.23
2018-12-21T03:24:16.607Z,34.93
2018-12-21T03:26:45.139Z,24.43
2018-12-21T03:29:13.660Z,21.00
2018-12-21T03:31:42.270Z,15.60
2018-12-21T03:34:10.834Z,23.40
2018-12-21T03:36:39.342Z,26.77
2018-12-21T03:39:08.694Z,28.27
2018-12-21T03:41:37.862Z,21.43
2018-12-21T03:44:06.360Z,17.40
2018-12-21T03:46:34.997Z,19.60
2018-12-21T03:49:03.475Z,24.60
2018-12-21T03:51:31.957Z,23.20
2018-12-21T03:54:00.546Z,16.63
2018-12-21T03:56:28.988Z,22.03
2018-12-21T03:58:57.484Z,20.97
2018-12-21T04:01:25.964Z,17.90
2018-12-21T04:03:54.459Z,18.40
2018-12-21T04:06:22.948Z,24.00
2018-12-21T04:08:51.451Z,14.73
2018-12-21T04:11:19.937Z,17.77
2018-12-21T04:13:48.549Z,11.17
2018-12-21T04:16:17.023Z,16.57
2018-12-21T04:18:45.515Z,18.97
2018-12-21T04:21:14.021Z,15.77
2018-12-21T04:23:42.466Z,15.63
2018-12-21T04:26:10.936Z,15.27
2018-12-21T04:28:39.424Z,18.27
2018-12-21T04:31:07.953Z,25.47
2018-12-21T04:33:36.524Z,14.87
2018-12-21T04:36:05.049Z,21.43
2018-12-21T04:38:34.392Z,13.37
2018-12-21T04:41:02.881Z,18.37
2018-12-21T04:43:31.405Z,13.57
2018-12-21T04:45:59.957Z,16.70
2018-12-21T04:48:28.396Z,12.93
2018-12-21T04:50:56.910Z,17.77
2018-12-21T04:53:25.497Z,10.93
2018-12-21T04:55:54.003Z,11.80
2018-12-21T04:58:22.489Z,18.97
2018-12-21T05:00:51.053Z,20.23
2018-12-21T05:03:19.622Z,12.43
2018-12-21T05:05:48.158Z,13.03
2018-12-21T05:08:16.784Z,23.17
2018-12-21T05:10:45.231Z,15.33
2018-12-21T05:13:13.813Z,10.43
2018-12-21T05:15:42.343Z,20.03
2018-12-21T05:18:10.861Z,12.50
2018-12-21T05:20:39.398Z,12.07
2018-12-21T05:23:07.904Z,10.53
2018-12-21T05:25:36.383Z,15.07
2018-12-21T05:28:04.900Z,13.10
2018-12-21T05:30:33.368Z,14.10
2018-12-21T05:33:01.857Z,9.90
2018-12-21T05:35:30.684Z,13.32
2018-12-21T05:37:59.131Z,11.37
2018-12-21T05:40:27.672Z,9.33
2018-12-21T05:42:56.137Z,14.37
2018-12-21T05:45:24.613Z,13.27
2018-12-21T05:47:53.682Z,14.53
2018-12-21T05:50:22.308Z,12.00
2018-12-21T05:52:50.775Z,9.80
2018-12-21T05:55:19.231Z,20.07
2018-12-21T05:57:47.736Z,14.63
2018-12-21T06:00:16.195Z,8.50
2018-12-21T06:02:44.660Z,13.20
2018-12-21T06:05:13.278Z,9.15
2018-12-21T06:07:41.755Z,15.20
2018-12-21T06:10:10.232Z,8.90
2018-12-21T06:12:38.696Z,8.83
2018-12-21T06:20:11.414Z,12.13
2018-12-21T06:22:40.068Z,14.17
2018-12-21T06:25:08.530Z,15.20
2018-12-21T06:27:37.205Z,21.90
2018-12-21T06:30:06.595Z,22.80
2018-12-21T06:32:35.079Z,18.67
2018-12-21T06:35:03.578Z,20.60
2018-12-21T06:37:32.087Z,17.47
2018-12-21T06:40:01.136Z,25.20
2018-12-21T06:42:29.732Z,22.80
2018-12-21T06:44:58.266Z,25.90
2018-12-21T06:47:26.752Z,20.57
2018-12-21T06:49:55.236Z,23.10
2018-12-21T06:52:23.806Z,30.77
2018-12-21T06:54:52.263Z,29.07
2018-12-21T06:57:20.720Z,27.37
2018-12-21T06:59:49.212Z,34.87
2018-12-21T07:02:18.199Z,27.43
2018-12-21T07:04:46.711Z,28.10
2018-12-21T07:07:15.877Z,26.77
2018-12-21T07:09:44.359Z,29.53
2018-12-21T07:12:12.832Z,28.37
2018-12-21T07:14:41.380Z,26.73
2018-12-21T07:17:10.399Z,35.70
2018-12-21T07:19:38.903Z,30.63
2018-12-21T07:22:07.396Z,31.00
2018-12-21T07:24:35.867Z,35.40
2018-12-21T07:27:04.389Z,29.13
2018-12-21T07:29:32.893Z,29.83
2018-12-21T07:32:01.391Z,28.00
2018-12-21T07:34:29.905Z,30.33
2018-12-21T07:36:58.399Z,33.43
2018-12-21T07:39:26.839Z,36.47
2018-12-21T07:41:55.381Z,32.67
2018-12-21T07:44:23.887Z,31.80
2018-12-21T07:46:52.448Z,36.83
2018-12-21T07:49:21.045Z,30.20
2018-12-21T07:51:49.552Z,29.97
2018-12-21T07:54:18.052Z,33.70
2018-12-21T07:56:46.519Z,29.97
2018-12-21T07:59:15.070Z,29.50
2018-12-21T08:01:44.362Z,29.50
2018-12-21T08:04:12.940Z,26.43
2018-12-21T08:06:41.419Z,28.70
2018-12-21T08:09:09.923Z,31.30
2018-12-21T08:11:38.449Z,31.37
2018-12-21T08:14:06.993Z,28.37
2018-12-21T08:16:35.472Z,26.80
2018-12-21T08:19:03.985Z,27.97
2018-12-21T08:21:32.504Z,27.47
2018-12-21T08:24:01.094Z,26.37
2018-12-21T08:26:29.649Z,32.30
2018-12-21T08:28:58.200Z,25.87
2018-12-21T08:31:26.659Z,30.63
2018-12-21T08:33:55.104Z,27.53
2018-12-21T08:36:23.796Z,28.27
2018-12-21T08:38:52.309Z,28.10
2018-12-21T08:41:20.888Z,30.60
2018-12-21T08:43:49.561Z,28.60
2018-12-21T08:46:18.065Z,27.77
2018-12-21T08:48:46.531Z,26.00
2018-12-21T08:51:15.076Z,29.70
2018-12-21T08:53:43.624Z,30.37
2018-12-21T08:56:12.370Z,26.53
2018-12-21T08:58:43.931Z,29.03
2018-12-21T09:01:12.472Z,33.17
2018-12-21T09:03:40.959Z,27.80
2018-12-21T09:06:09.464Z,32.87
2018-12-21T09:08:37.934Z,30.83
2018-12-21T09:11:06.456Z,31.97
2018-12-21T09:13:34.912Z,33.23
2018-12-21T09:16:03.469Z,29.77
2018-12-21T09:18:32.149Z,24.93
2018-12-21T09:21:00.672Z,29.00
2018-12-21T09:23:29.223Z,28.00
2018-12-21T09:25:57.743Z,24.67
2018-12-21T09:28:26.220Z,29.43
2018-12-21T09:30:54.704Z,23.57
2018-12-21T09:33:23.159Z,24.10
2018-12-21T09:35:51.758Z,27.40
2018-12-21T09:38:20.474Z,24.97
2018-12-21T09:40:48.980Z,25.43
2018-12-21T09:43:17.456Z,22.53
2018-12-21T09:45:46.107Z,26.93
2018-12-21T09:48:14.597Z,25.07
2018-12-21T09:50:43.112Z,23.97
2018-12-21T09:53:11.608Z,24.53
2018-12-21T09:55:40.244Z,21.93
2018-12-21T09:58:08.720Z,19.80
2018-12-21T10:00:37.208Z,18.00
2018-12-21T10:03:05.717Z,17.83
2018-12-21T10:05:34.232Z,16.37
2018-12-21T10:08:02.756Z,17.60
2018-12-21T10:10:31.285Z,15.98
2018-12-21T10:12:59.792Z,14.63
2018-12-21T10:15:28.300Z,13.17
2018-12-21T10:17:56.828Z,13.53
2018-12-21T10:20:25.293Z,12.70
2018-12-21T10:22:53.920Z,15.90
2018-12-21T10:25:22.535Z,13.40
2018-12-21T10:27:51.015Z,12.63
2018-12-21T10:30:25.687Z,12.47
2018-12-21T10:32:54.172Z,11.90
2018-12-21T10:35:22.735Z,15.00
2018-12-21T10:37:51.207Z,13.47
2018-12-21T10:40:19.686Z,13.87
2018-12-21T10:42:48.405Z,13.50
2018-12-21T10:45:17.024Z,11.00
2018-12-21T10:47:45.546Z,11.90
2018-12-21T10:50:14.105Z,11.20
2018-12-21T10:52:42.623Z,11.97
2018-12-21T10:55:11.105Z,11.90
2018-12-21T10:57:39.613Z,9.70
2018-12-21T11:00:10.874Z,12.93
2018-12-21T11:02:39.361Z,12.70
2018-12-21T11:05:08.877Z,8.83
2018-12-21T11:07:37.511Z,9.87
2018-12-21T11:10:10.636Z,14.50
2018-12-21T11:12:39.103Z,9.47
2018-12-21T11:15:08.385Z,9.98
2018-12-21T11:17:36.883Z,9.47
2018-12-21T11:20:07.132Z,9.67
2018-12-21T11:22:35.660Z,9.60
2018-12-21T11:25:04.803Z,11.73
2018-12-21T11:27:33.391Z,9.73
2018-12-21T11:30:01.882Z,10.53
2018-12-21T11:32:30.426Z,7.93
2018-12-21T11:34:58.977Z,9.87
2018-12-21T11:37:27.441Z,7.70
2018-12-21T11:39:55.961Z,6.53
2018-12-21T11:42:24.426Z,10.75
2018-12-21T11:44:52.931Z,9.50
2018-12-21T11:47:21.470Z,13.58
2018-12-21T11:49:49.991Z,9.30
2018-12-21T11:52:18.661Z,9.70
2018-12-21T11:54:47.148Z,9.57
2018-12-21T11:57:15.717Z,8.67
2018-12-21T11:59:45.024Z,7.00
2018-12-21T12:02:19.418Z,7.03
2018-12-21T12:04:44.357Z,10.20
2018-12-21T12:07:13.052Z,9.77
2018-12-21T12:09:41.504Z,5.40
2018-12-21T12:12:10.092Z,5.07
2018-12-21T12:14:38.597Z,5.80
2018-12-21T12:17:07.099Z,5.50
2018-12-21T12:19:35.595Z,6.27
2018-12-21T12:22:04.172Z,6.40
2018-12-21T12:24:32.689Z,6.03
2018-12-21T12:27:01.171Z,7.97
2018-12-21T12:29:30.247Z,4.83
2018-12-21T12:31:58.721Z,5.20
2018-12-21T12:34:27.507Z,5.40
2018-12-21T12:36:58.006Z,5.10
2018-12-21T12:39:26.591Z,9.67
2018-12-21T12:41:55.082Z,7.23
2018-12-21T12:44:23.586Z,9.47
2018-12-21T12:46:52.056Z,8.87
2018-12-21T12:49:20.572Z,8.57
2018-12-21T12:51:49.094Z,12.20
2018-12-21T12:54:17.573Z,13.43
2018-12-21T12:56:46.025Z,14.30
2018-12-21T12:59:14.481Z,10.30
2018-12-21T13:01:43.147Z,13.83
2018-12-21T13:04:11.639Z,16.20
2018-12-21T13:06:40.132Z,15.20
2018-12-21T13:09:08.668Z,10.93
2018-12-21T13:11:38.131Z,11.30
2018-12-21T13:14:06.644Z,13.90
2018-12-21T13:16:35.267Z,14.23
2018-12-21T13:19:03.772Z,15.10
2018-12-21T13:21:32.271Z,17.10
2018-12-21T13:24:00.912Z,19.37
2018-12-21T13:26:29.364Z,17.70
2018-12-21T13:28:57.911Z,36.33
2018-12-21T13:31:26.589Z,15.00
2018-12-21T13:33:55.136Z,24.50
2018-12-21T13:36:23.657Z,16.90
2018-12-21T13:38:52.156Z,13.47
2018-12-21T13:41:20.647Z,17.50
2018-12-21T13:43:49.171Z,12.30
2018-12-21T13:46:17.728Z,12.60
2018-12-21T13:48:46.308Z,13.23
2018-12-21T13:51:14.851Z,34.03
2018-12-21T13:53:43.370Z,12.53
2018-12-21T13:56:12.039Z,10.20
2018-12-21T13:58:40.504Z,22.37
2018-12-21T14:01:08.966Z,58.30
2018-12-21T14:03:37.478Z,38.40
2018-12-21T14:06:05.928Z,12.00
2018-12-21T14:08:34.490Z,12.77
2018-12-21T14:11:03.006Z,16.07
2018-12-21T14:13:31.533Z,14.93
2018-12-21T14:16:00.173Z,14.70
2018-12-21T14:18:29.576Z,16.00
2018-12-21T14:20:58.071Z,27.17
2018-12-21T14:23:26.641Z,29.07
2018-12-21T14:25:55.186Z,14.37
2018-12-21T14:28:23.706Z,10.90
2018-12-21T14:30:52.922Z,18.50
2018-12-21T14:33:21.536Z,25.27
2018-12-21T14:35:50.113Z,22.03
2018-12-21T14:38:18.658Z,19.83
2018-12-21T14:40:47.219Z,20.90
2018-12-21T14:43:15.918Z,24.93
2018-12-21T14:45:44.633Z,13.27
2018-12-21T14:48:13.179Z,8.60
2018-12-21T14:50:42.372Z,41.63
2018-12-21T14:53:10.873Z,18.60
2018-12-21T14:55:39.580Z,18.33
2018-12-21T14:58:08.455Z,27.57
2018-12-21T15:00:37.013Z,24.10
2018-12-21T15:03:06.450Z,24.17
2018-12-21T15:05:35.070Z,25.97
2018-12-21T15:08:03.621Z,28.97
2018-12-21T15:10:32.144Z,19.23
2018-12-21T15:13:00.631Z,24.30
2018-12-21T15:15:29.200Z,30.70
2018-12-21T15:17:57.758Z,28.90
2018-12-21T15:20:26.289Z,35.68
2018-12-21T15:22:54.756Z,20.97
2018-12-21T15:25:23.359Z,24.40
2018-12-21T15:27:51.916Z,20.77
2018-12-21T15:30:20.907Z,21.50
2018-12-21T15:32:49.344Z,26.77
2018-12-21T15:35:17.895Z,26.83
2018-12-21T15:37:46.368Z,21.70
2018-12-21T15:40:14.940Z,22.63
2018-12-21T15:42:43.439Z,22.73
2018-12-21T15:45:11.954Z,26.77
2018-12-21T15:47:40.407Z,23.30
2018-12-21T15:50:11.567Z,29.07
2018-12-21T15:52:41.396Z,26.10
2018-12-21T15:55:09.947Z,35.57
2018-12-21T15:57:39.607Z,12.33
2018-12-21T16:00:11.455Z,28.65
2018-12-21T16:02:41.155Z,24.60
2018-12-21T16:05:09.635Z,33.33
2018-12-21T16:07:38.156Z,25.07
2018-12-21T16:10:08.278Z,36.93
2018-12-21T16:12:36.819Z,28.70
2018-12-21T16:15:05.679Z,27.30
2018-12-21T16:17:34.187Z,17.93
2018-12-21T16:20:03.238Z,17.43
2018-12-21T16:22:31.723Z,22.17
2018-12-21T16:25:00.223Z,25.27
2018-12-21T16:27:30.669Z,26.33
2018-12-21T16:30:00.023Z,20.17
2018-12-21T16:32:28.945Z,24.07
2018-12-21T16:34:57.574Z,10.20
2018-12-21T16:37:26.148Z,19.50
2018-12-21T16:39:54.585Z,19.00
2018-12-21T16:42:23.032Z,25.17
2018-12-21T16:44:51.533Z,17.80
2018-12-21T16:47:20.065Z,26.13
2018-12-21T16:49:48.549Z,28.90
2018-12-21T16:52:17.039Z,18.53
2018-12-21T16:54:45.773Z,20.53
2018-12-21T16:57:14.211Z,20.20
2018-12-21T16:59:42.797Z,34.57
2018-12-21T17:02:12.161Z,33.80
2018-12-21T17:04:40.622Z,30.00
2018-12-21T17:07:09.166Z,22.07
2018-12-21T17:09:37.696Z,26.77
2018-12-21T17:12:06.199Z,21.47
2018-12-21T17:14:34.781Z,23.80
2018-12-21T17:17:05.051Z,29.97
2018-12-21T17:19:33.780Z,19.70
2018-12-21T17:22:02.452Z,17.57
2018-12-21T17:24:37.702Z,27.90
2018-12-21T17:27:06.205Z,23.53
2018-12-21T17:29:34.720Z,35.37
2018-12-21T17:32:03.313Z,27.87
2018-12-21T17:34:31.965Z,32.63
2018-12-21T17:37:00.452Z,33.87
2018-12-21T17:39:28.925Z,44.90
2018-12-21T17:42:04.025Z,26.83
2018-12-21T17:44:32.550Z,28.10
2018-12-21T17:47:01.017Z,27.47
2018-12-21T17:49:29.524Z,27.83
2018-12-21T17:52:01.539Z,26.07
2018-12-21T17:54:28.738Z,34.07
2018-12-21T17:56:57.329Z,30.40
2018-12-21T17:59:25.838Z,33.70
2018-12-21T18:01:54.665Z,41.40
2018-12-21T18:04:27.592Z,35.83
2018-12-21T18:06:56.192Z,89.27
2018-12-21T18:09:26.692Z,33.30
2018-12-21T18:11:57.269Z,29.43
2018-12-21T18:14:25.819Z,38.17
2018-12-21T18:16:54.285Z,39.42
2018-12-21T18:19:22.897Z,35.70
2018-12-21T18:21:56.707Z,31.20
2018-12-21T18:24:26.325Z,33.53
2018-12-21T18:26:54.803Z,28.47
2018-12-21T18:29:24.013Z,40.40
2018-12-21T18:31:59.525Z,45.73
2018-12-21T18:34:34.788Z,35.20
2018-12-21T18:37:05.440Z,42.23
2018-12-21T18:39:33.934Z,46.97
2018-12-21T18:42:02.513Z,52.63
2018-12-21T18:44:31.161Z,53.37
2018-12-21T18:46:59.611Z,51.70
2018-12-21T18:49:28.959Z,50.30
2018-12-21T18:51:59.775Z,43.07
2018-12-21T18:54:29.112Z,53.90
2018-12-21T18:57:16.050Z,52.33
2018-12-21T18:59:44.563Z,47.07
2018-12-21T19:02:13.229Z,54.33
2018-12-21T19:04:41.719Z,52.07
2018-12-21T19:07:10.388Z,52.90
2018-12-21T19:09:40.934Z,51.37
2018-12-21T19:12:09.541Z,48.00
2018-12-21T19:14:38.271Z,68.83
2018-12-21T19:17:06.933Z,55.03
2018-12-21T19:19:35.504Z,52.63
2018-12-21T19:22:03.983Z,36.07
2018-12-21T19:24:32.731Z,42.03
2018-12-21T19:27:01.208Z,37.33
2018-12-21T19:29:30.173Z,47.33
2018-12-21T19:31:59.300Z,41.53
2018-12-21T19:34:28.006Z,39.50
2018-12-21T19:36:56.539Z,36.10
2018-12-21T19:39:25.082Z,19.53
2018-12-21T19:41:53.654Z,15.77
2018-12-21T19:44:22.149Z,25.40
2018-12-21T19:46:50.617Z,18.33
2018-12-21T19:49:19.297Z,20.97
2018-12-21T19:51:47.895Z,16.10
2018-12-21T19:54:19.416Z,28.27
2018-12-21T19:56:53.036Z,18.90
2018-12-21T19:59:22.034Z,19.10
2018-12-21T20:01:50.796Z,23.17
2018-12-21T20:04:19.609Z,20.63
2018-12-21T20:06:48.064Z,24.40
2018-12-21T20:09:16.549Z,19.00
2018-12-21T20:11:45.089Z,10.90
2018-12-21T20:14:13.665Z,23.40
2018-12-21T20:16:42.364Z,20.70
2018-12-21T20:19:10.885Z,18.80
2018-12-21T20:21:40.200Z,18.60
2018-12-21T20:24:08.849Z,17.70
2018-12-21T20:26:37.519Z,14.20
2018-12-21T20:29:06.090Z,18.90
2018-12-21T20:31:35.249Z,10.90
2018-12-21T20:34:03.840Z,13.07
2018-12-21T20:36:32.370Z,11.07
2018-12-21T20:39:00.980Z,13.37
2018-12-21T20:41:29.624Z,9.37
2018-12-21T20:43:58.165Z,21.07
2018-12-21T20:46:27.524Z,7.60
2018-12-21T20:48:56.300Z,12.30
2018-12-21T20:51:25.012Z,10.17
2018-12-21T20:53:54.164Z,11.47
2018-12-21T20:56:22.721Z,12.63
2018-12-21T20:58:56.285Z,9.03
2018-12-21T21:01:25.179Z,13.63
2018-12-21T21:03:53.690Z,8.93
2018-12-21T21:06:22.192Z,15.72
2018-12-21T21:08:50.745Z,10.63
2018-12-21T21:11:24.328Z,13.05
2018-12-21T21:13:50.285Z,17.20
2018-12-21T21:16:18.928Z,11.03
2018-12-21T21:18:47.428Z,10.23
2018-12-21T21:21:16.088Z,7.07
2018-12-21T21:23:44.585Z,9.37
2018-12-21T21:26:13.076Z,12.00
2018-12-21T21:28:41.743Z,11.80
2018-12-21T21:31:10.211Z,9.13
2018-12-21T21:33:38.713Z,7.77
2018-12-21T21:36:07.350Z,6.87
2018-12-21T21:38:35.877Z,7.60
2018-12-21T21:41:04.527Z,9.97
2018-12-21T21:43:32.996Z,8.70
2018-12-21T21:46:01.501Z,5.40
2018-12-21T21:48:30.165Z,6.17
2018-12-21T21:50:58.736Z,11.63
2018-12-21T21:53:27.190Z,7.13
2018-12-21T21:55:55.730Z,5.23
2018-12-21T21:58:24.314Z,9.10
2018-12-21T22:00:53.013Z,9.60
2018-12-21T22:03:21.511Z,8.03
2018-12-21T22:05:50.048Z,10.50
2018-12-21T22:08:18.554Z,7.30
2018-12-21T22:10:47.015Z,7.93
2018-12-21T22:13:15.511Z,6.07
2018-12-21T22:15:44.032Z,3.33
2018-12-21T22:18:12.747Z,6.43
2018-12-21T22:20:41.241Z,5.30
2018-12-21T22:23:09.711Z,7.57
2018-12-21T22:25:38.351Z,7.00
2018-12-21T22:28:06.825Z,7.87
2018-12-21T22:30:35.376Z,6.50
2018-12-21T22:33:03.857Z,12.67
2018-12-21T22:35:32.337Z,8.17
2018-12-21T22:38:00.981Z,5.37
2018-12-21T22:40:29.473Z,14.90
2018-12-21T22:42:57.979Z,15.07
2018-12-21T22:45:26.459Z,10.83
2018-12-21T22:47:55.037Z,10.83
2018-12-21T22:50:23.561Z,10.93
2018-12-21T22:52:52.040Z,10.00
2018-12-21T22:55:20.508Z,7.43
2018-12-21T22:57:56.288Z,7.27
2018-12-21T23:00:28.248Z,6.40
2018-12-21T23:02:56.796Z,5.90
2018-12-21T23:05:25.313Z,9.30
2018-12-21T23:07:53.792Z,11.63
2018-12-21T23:10:22.330Z,11.93
2018-12-21T23:12:50.832Z,8.17
2018-12-21T23:15:20.093Z,8.07
2018-12-21T23:17:48.590Z,6.77
2018-12-21T23:20:17.090Z,10.70
2018-12-21T23:22:45.536Z,8.23
2018-12-21T23:25:14.229Z,11.03
2018-12-21T23:27:42.907Z,7.30
2018-12-21T23:30:11.415Z,8.27
2018-12-21T23:32:39.912Z,8.33
2018-12-21T23:35:08.874Z,6.92
2018-12-21T23:37:37.390Z,10.93
2018-12-21T23:40:07.436Z,9.80
2018-12-21T23:42:35.953Z,15.53
2018-12-21T23:45:04.766Z,8.53
2018-12-21T23:47:33.292Z,12.33
2018-12-21T23:50:01.916Z,15.23
2018-12-21T23:52:30.371Z,12.97
2018-12-21T23:54:58.823Z,12.50
2018-12-21T23:57:27.459Z,12.68
2018-12-21T23:59:55.943Z,18.00
